Terminal Aerodrome Forecast
Issued by NWS

Home | Current Version | Previous Version | Text Only | Print | Product List | Glossary On
Versions: 1 2 3 4 5 6 7 8 9 10 11 12 13 14 15
934
FTUS43 KMPX 130520
TAFAXN
TAF
KAXN 130520Z 1306/1406 33007KT P6SM SKC
     FM130900 33003KT P6SM FEW250
     FM131200 13003KT P6SM SCT250
     FM131600 14014KT P6SM BKN100
     FM140200 15017G25KT 3SM -SN OVC025=

USA.gov is the U.S. government's official web portal to all federal, state and local government web resources and services.